Time;durP1;ratioP1;P1;durP2;ratioP2;P2;SDS_P1;SDS_P2;PMS_P1;PMS_P2;Temp;Humidity;BMP_temperature;BMP_pressure;BME280_temperature;BME280_humidity;BME280_pressure;Samples;Min_cycle;Max_cycle;Signal;HPM_P1;HPM_P2
2022/09/08 00:02:11;;;;;;;9.18;7.03;;;;;;;21.98;65.65;100174.63;5030958;28;20029;-65
2022/09/08 00:04:37;;;;;;;10.15;6.88;;;;;;;21.96;65.38;100180.31;5031013;28;20021;-65
2022/09/08 00:07:03;;;;;;;9.60;6.95;;;;;;;21.87;65.64;100167.09;5028596;28;20056;-66
2022/09/08 00:09:30;;;;;;;8.75;6.90;;;;;;;21.88;65.22;100176.97;5031871;28;20029;-66
2022/09/08 00:11:56;;;;;;;8.93;6.80;;;;;;;21.81;65.16;100173.41;5032051;28;20041;-66
2022/09/08 00:14:22;;;;;;;11.93;7.15;;;;;;;21.78;65.83;100165.63;5031972;28;20025;-66
2022/09/08 00:16:47;;;;;;;10.68;7.28;;;;;;;21.73;66.54;100174.44;5032329;28;20119;-66
2022/09/08 00:19:13;;;;;;;9.38;6.63;;;;;;;21.69;67.09;100172.31;5029211;28;20531;-66
2022/09/08 00:21:39;;;;;;;9.82;7.00;;;;;;;21.64;67.74;100167.47;5032045;28;20857;-66
2022/09/08 00:24:04;;;;;;;8.85;7.00;;;;;;;21.58;68.59;100167.47;5032101;28;20040;-66
2022/09/08 00:26:29;;;;;;;10.65;7.25;;;;;;;21.48;69.42;100156.13;5031696;28;20027;-66
2022/09/08 00:28:55;;;;;;;10.45;8.15;;;;;;;21.52;69.91;100165.56;5032229;28;20385;-66
2022/09/08 00:31:22;;;;;;;8.93;7.63;;;;;;;21.43;70.22;100156.75;5032083;28;20057;-66
2022/09/08 00:33:47;;;;;;;11.18;8.48;;;;;;;21.45;70.87;100156.56;5030563;28;20033;-67
2022/09/08 00:36:15;;;;;;;12.27;7.90;;;;;;;21.38;71.43;100155.72;5031167;28;20033;-67
2022/09/08 00:38:41;;;;;;;10.32;8.48;;;;;;;21.31;71.99;100146.69;5031626;28;20083;-66
2022/09/08 00:41:11;;;;;;;9.20;8.05;;;;;;;21.17;72.12;100134.91;5032125;28;20061;-66
2022/09/08 00:43:38;;;;;;;10.57;8.68;;;;;;;21.13;72.32;100135.50;5031777;28;20029;-66
2022/09/08 00:46:14;;;;;;;9.00;7.85;;;;;;;21.13;72.42;100146.41;5031769;28;20075;-66
2022/09/08 00:49:16;;;;;;;8.73;7.82;;;;;;;21.11;72.38;100153.94;5029274;28;20037;-66
2022/09/08 00:51:45;;;;;;;8.18;7.35;;;;;;;21.09;71.61;100151.44;5015683;28;20049;-66
2022/09/08 00:54:12;;;;;;;10.20;7.53;;;;;;;21.08;70.73;100151.63;5029908;28;20693;-66
2022/09/08 00:56:41;;;;;;;8.15;7.35;;;;;;;21.06;70.00;100145.56;5030094;28;20079;-66
2022/09/08 00:59:08;;;;;;;8.88;8.00;;;;;;;21.10;69.59;100147.69;5030686;28;20370;-66
2022/09/08 01:01:34;;;;;;;11.35;7.60;;;;;;;21.04;69.34;100129.41;5028425;28;20068;-66
2022/09/08 01:04:01;;;;;;;9.05;7.60;;;;;;;21.12;69.36;100145.56;5028168;28;20486;-66
2022/09/08 01:12:44;;;;;;;9.02;7.28;;;;;;;21.17;68.88;100128.59;5024993;28;20099;-66
2022/09/08 01:15:15;;;;;;;13.10;7.07;;;;;;;21.15;68.80;100136.16;5028199;28;20460;-65
2022/09/08 01:17:41;;;;;;;9.68;7.32;;;;;;;21.15;68.92;100125.25;5009685;28;20631;-65
2022/09/08 01:20:08;;;;;;;8.52;7.32;;;;;;;21.17;68.89;100140.34;5028539;28;20044;-66
2022/09/08 01:22:49;;;;;;;12.20;7.57;;;;;;;21.20;68.81;100139.94;5025560;28;20049;-66
2022/09/08 01:25:33;;;;;;;11.80;7.93;;;;;;;21.20;68.97;100136.34;5028234;28;20021;-66
2022/09/08 01:28:12;;;;;;;10.70;7.93;;;;;;;21.20;69.09;100136.34;5025369;28;20108;-65
2022/09/08 01:30:37;;;;;;;9.05;7.90;;;;;;;21.18;69.36;100133.00;5027509;28;20033;-66
2022/09/08 01:33:06;;;;;;;8.05;6.85;;;;;;;21.16;69.65;100130.50;5027279;28;20516;-66
2022/09/08 01:35:35;;;;;;;8.95;8.05;;;;;;;21.15;69.96;100114.34;5025300;28;20739;-66
2022/09/08 01:38:01;;;;;;;11.63;8.13;;;;;;;21.14;70.34;100116.22;5010224;28;20033;-66
2022/09/08 01:40:26;;;;;;;9.48;8.05;;;;;;;21.11;70.51;100102.97;5027614;28;20029;-66
2022/09/08 01:42:52;;;;;;;9.50;8.05;;;;;;;21.11;70.75;100107.59;5028496;28;20267;-66
2022/09/08 01:45:17;;;;;;;11.63;8.10;;;;;;;21.11;71.00;100097.53;5026193;28;20056;-66
2022/09/08 01:47:43;;;;;;;12.40;8.40;;;;;;;21.08;71.82;100102.53;5026073;28;20033;-66
2022/09/08 01:50:09;;;;;;;10.07;8.43;;;;;;;21.13;72.04;100119.16;5027749;28;20084;-66
2022/09/08 01:52:34;;;;;;;11.00;8.98;;;;;;;21.04;72.47;100093.09;5027517;28;20077;-67
2022/09/08 01:55:00;;;;;;;10.88;8.27;;;;;;;21.07;72.96;100098.16;5027395;28;20456;-66
2022/09/08 01:57:26;;;;;;;9.68;8.50;;;;;;;21.09;73.24;100096.06;5026897;28;20466;-66
2022/09/08 01:59:51;;;;;;;10.48;9.05;;;;;;;21.10;73.62;100097.72;5027672;28;20033;-66
2022/09/08 02:02:17;;;;;;;12.13;9.60;;;;;;;21.12;74.12;100101.94;5027123;28;20080;-66
2022/09/08 02:04:42;;;;;;;13.10;9.35;;;;;;;21.11;74.53;100102.13;5006495;28;20095;-66
2022/09/08 02:07:08;;;;;;;11.30;9.27;;;;;;;21.04;74.78;100087.66;5027258;28;20393;-66
2022/09/08 02:09:33;;;;;;;11.95;9.43;;;;;;;21.11;75.15;100110.31;5024490;28;20069;-66
2022/09/08 02:11:59;;;;;;;10.45;9.35;;;;;;;21.10;75.54;100101.31;5024386;28;20037;-66
2022/09/08 02:14:24;;;;;;;10.55;8.73;;;;;;;21.09;75.86;100115.97;5026572;28;20030;-66
2022/09/08 02:16:50;;;;;;;10.90;9.45;;;;;;;21.06;76.33;100102.78;5024863;28;20033;-66
2022/09/08 02:19:15;;;;;;;11.80;9.68;;;;;;;21.07;76.80;100107.19;5008278;28;20037;-66
2022/09/08 02:21:40;;;;;;;9.93;8.93;;;;;;;21.06;76.94;100110.13;5026583;28;20025;-66
2022/09/08 02:24:06;;;;;;;11.13;9.48;;;;;;;21.04;77.34;100110.31;5025391;28;20042;-66
2022/09/08 02:26:32;;;;;;;14.40;9.88;;;;;;;21.05;77.69;100103.81;5025428;28;20255;-66
2022/09/08 02:28:57;;;;;;;13.80;9.48;;;;;;;20.93;77.95;100089.06;5024183;28;20560;-66
2022/09/08 02:31:25;;;;;;;13.48;10.60;;;;;;;20.97;78.37;100092.25;5007701;28;20033;-66
2022/09/08 02:33:51;;;;;;;11.80;10.60;;;;;;;21.02;78.62;100106.13;5024931;28;20040;-66
2022/09/08 02:36:18;;;;;;;16.50;11.05;;;;;;;20.96;79.16;100102.31;5024415;28;20037;-66
2022/09/08 02:38:53;;;;;;;12.45;10.45;;;;;;;20.96;79.27;100105.03;5026555;28;20099;-66
2022/09/08 02:41:20;;;;;;;13.52;10.25;;;;;;;20.97;79.61;100108.63;5026168;28;20033;-66
2022/09/08 02:43:46;;;;;;;11.77;10.52;;;;;;;20.95;79.87;100103.38;5007550;28;20053;-66
2022/09/08 02:46:12;;;;;;;11.85;10.52;;;;;;;20.93;80.15;100110.88;5025734;28;20052;-66
2022/09/08 02:48:38;;;;;;;12.77;11.48;;;;;;;20.90;80.61;100107.75;5025104;28;20048;-66
2022/09/08 02:51:08;;;;;;;12.02;10.77;;;;;;;20.89;80.84;100108.78;5024682;28;20091;-65
2022/09/08 02:53:35;;;;;;;15.27;11.35;;;;;;;20.87;81.13;100111.72;5001640;28;20057;-66
2022/09/08 02:56:01;;;;;;;12.18;10.98;;;;;;;20.84;81.45;100105.81;5025543;28;20488;-66
2022/09/08 02:58:27;;;;;;;14.90;10.98;;;;;;;20.83;81.74;100106.88;5026064;28;20032;-66
2022/09/08 03:00:52;;;;;;;14.73;10.98;;;;;;;20.82;81.94;100111.47;5025427;28;20038;-65
2022/09/08 03:03:18;;;;;;;12.70;11.10;;;;;;;20.80;82.29;100107.28;5026576;28;20041;-65
2022/09/08 03:05:43;;;;;;;12.77;11.40;;;;;;;20.80;82.47;100116.28;5026686;28;20044;-66
2022/09/08 03:08:09;;;;;;;14.48;11.18;;;;;;;20.72;82.69;100099.28;5025763;28;20040;-65
2022/09/08 03:10:35;;;;;;;14.02;11.90;;;;;;;20.76;82.91;100119.66;5024534;28;20028;-65
2022/09/08 03:13:02;;;;;;;17.13;11.82;;;;;;;20.72;83.50;100118.38;5024564;28;20025;-66
2022/09/08 03:15:29;;;;;;;16.67;11.60;;;;;;;20.71;83.48;100125.72;5025090;28;20033;-66
2022/09/08 03:17:56;;;;;;;15.68;11.80;;;;;;;20.66;83.91;100121.94;5026110;28;20428;-66
2022/09/08 03:20:22;;;;;;;15.35;11.18;;;;;;;20.70;83.84;100125.94;5026521;28;20053;-66
2022/09/08 03:22:49;;;;;;;14.85;12.15;;;;;;;20.69;83.73;100119.63;5026270;28;20044;-65
2022/09/08 03:25:15;;;;;;;13.48;12.05;;;;;;;20.68;84.12;100122.56;5024872;28;20611;-66
2022/09/08 03:27:41;;;;;;;14.25;11.85;;;;;;;20.64;84.26;100119.41;5025912;28;20033;-66
2022/09/08 03:30:09;;;;;;;18.77;13.20;;;;;;;20.61;84.55;100117.09;5024623;28;20072;-66
2022/09/08 03:32:36;;;;;;;13.02;11.13;;;;;;;20.59;84.77;100119.16;5022987;28;20045;-66
2022/09/08 03:35:02;;;;;;;13.75;11.43;;;;;;;20.57;84.95;100114.97;5007936;28;20033;-66
2022/09/08 03:37:28;;;;;;;14.27;12.00;;;;;;;20.48;85.22;100108.88;5025484;28;20029;-66
2022/09/08 03:39:54;;;;;;;16.17;11.38;;;;;;;20.50;85.50;100108.66;5025769;28;20370;-66
2022/09/08 03:42:20;;;;;;;16.40;12.75;;;;;;;20.51;85.69;100111.19;5022109;28;20041;-66
2022/09/08 03:44:45;;;;;;;13.35;11.57;;;;;;;20.47;85.81;100109.88;5006760;28;20501;-64
2022/09/08 03:47:11;;;;;;;14.55;12.27;;;;;;;20.41;86.25;100110.69;5025687;28;20041;-66
2022/09/08 03:49:36;;;;;;;14.25;12.52;;;;;;;20.45;86.30;100112.00;5025955;28;20033;-66
2022/09/08 03:52:03;;;;;;;15.38;12.68;;;;;;;20.42;86.56;100114.28;5021789;28;20045;-66
2022/09/08 03:54:47;;;;;;;17.25;12.32;;;;;;;20.35;86.85;100111.53;5003898;28;20037;-66
2022/09/08 03:57:13;;;;;;;15.95;11.57;;;;;;;20.39;87.13;100120.13;5025643;28;20108;-66
2022/09/08 03:59:39;;;;;;;19.17;12.52;;;;;;;20.32;87.29;100111.94;5025510;28;20040;-65
2022/09/08 04:02:04;;;;;;;15.02;13.10;;;;;;;20.25;87.32;100091.16;5024755;28;20485;-66
2022/09/08 04:04:30;;;;;;;17.50;12.75;;;;;;;20.36;87.38;100110.47;5025024;28;20025;-66
2022/09/08 04:06:57;;;;;;;18.13;12.32;;;;;;;20.34;87.44;100115.28;5024579;28;20049;-65
2022/09/08 04:09:22;;;;;;;15.38;12.43;;;;;;;20.33;87.42;100121.78;5023304;28;20485;-66
2022/09/08 04:11:48;;;;;;;16.92;13.43;;;;;;;20.23;87.82;100112.28;5023230;28;20088;-65
2022/09/08 04:14:14;;;;;;;14.95;13.15;;;;;;;20.29;88.00;100122.38;5021984;28;20026;-66
2022/09/08 04:16:43;;;;;;;17.02;12.68;;;;;;;20.26;87.90;100120.06;5024428;28;20438;-62
2022/09/08 04:19:10;;;;;;;17.92;12.80;;;;;;;20.24;88.18;100119.44;5024566;28;20036;-66
2022/09/08 04:21:36;;;;;;;16.58;13.02;;;;;;;20.28;88.06;100126.16;5024046;28;20095;-65
2022/09/08 04:24:02;;;;;;;18.13;12.85;;;;;;;20.22;88.38;100125.09;5024778;28;20029;-66
2022/09/08 04:26:27;;;;;;;16.63;12.38;;;;;;;20.24;88.08;100127.59;5006512;28;20156;-66
2022/09/08 04:28:53;;;;;;;17.75;13.00;;;;;;;20.19;88.44;100123.56;5007114;28;20048;-66
2022/09/08 04:31:19;;;;;;;16.05;13.55;;;;;;;20.24;88.69;100133.88;5024447;28;20159;-67
2022/09/08 04:33:45;;;;;;;19.27;13.57;;;;;;;20.14;88.82;100122.50;5021950;28;20044;-66
2022/09/08 04:36:14;;;;;;;17.02;13.13;;;;;;;20.18;88.81;100132.78;5021767;28;20080;-66
2022/09/08 04:38:40;;;;;;;14.50;12.65;;;;;;;20.18;88.83;100134.66;5006429;28;20082;-65
2022/09/08 04:41:08;;;;;;;15.88;12.40;;;;;;;20.17;89.38;100133.84;5027708;28;20071;-67
2022/09/08 04:43:35;;;;;;;15.25;12.57;;;;;;;20.18;89.00;100132.78;5010498;28;20041;-67
2022/09/08 04:46:06;;;;;;;15.50;12.75;;;;;;;20.16;88.90;100129.41;5028967;28;20037;-66
2022/09/08 04:48:32;;;;;;;14.65;11.98;;;;;;;20.20;88.96;100129.88;5029067;28;20063;-66
2022/09/08 04:50:59;;;;;;;14.82;12.75;;;;;;;20.22;89.35;100127.81;5028808;28;20037;-66
2022/09/08 04:53:26;;;;;;;19.85;13.32;;;;;;;20.24;89.04;100133.88;5027891;28;20055;-67
2022/09/08 04:55:52;;;;;;;14.07;12.10;;;;;;;20.25;89.25;100132.84;5025532;28;20036;-66
2022/09/08 04:58:18;;;;;;;15.98;12.60;;;;;;;20.28;89.17;100146.03;5028183;28;20505;-66
2022/09/08 05:00:44;;;;;;;16.58;12.75;;;;;;;20.31;89.00;100144.81;5009579;28;20274;-66
2022/09/08 05:03:09;;;;;;;14.30;12.52;;;;;;;20.33;89.11;100150.88;5021375;28;20033;-67
2022/09/08 05:05:36;;;;;;;16.23;12.50;;;;;;;20.34;89.12;100147.97;5007730;28;20535;-65
2022/09/08 05:08:01;;;;;;;21.65;12.93;;;;;;;20.40;88.80;100147.16;5027817;28;20536;-66
2022/09/08 05:10:27;;;;;;;14.30;12.75;;;;;;;20.43;88.35;100143.19;5027831;28;20059;-67
2022/09/08 05:12:54;;;;;;;18.88;12.05;;;;;;;20.48;88.27;100143.44;5028259;28;20447;-67
2022/09/08 05:15:20;;;;;;;14.35;12.07;;;;;;;20.57;87.72;100134.06;5025621;28;20033;-66
2022/09/08 05:17:45;;;;;;;15.82;12.88;;;;;;;20.54;87.29;100120.81;5027076;28;20469;-66
2022/09/08 05:20:11;;;;;;;13.07;11.68;;;;;;;20.61;87.24;100125.25;5024012;28;20273;-67
2022/09/08 05:22:37;;;;;;;13.48;12.07;;;;;;;20.69;87.15;100129.66;5024640;28;20044;-66
2022/09/08 05:25:03;;;;;;;17.48;12.93;;;;;;;20.73;87.38;100139.16;5021323;28;20079;-67
2022/09/08 05:27:29;;;;;;;17.83;13.73;;;;;;;20.79;86.97;100136.44;5007417;28;20674;-65
2022/09/08 05:29:54;;;;;;;14.30;11.98;;;;;;;20.82;86.83;100133.28;5027176;28;20033;-66
2022/09/08 05:32:20;;;;;;;18.23;13.88;;;;;;;20.95;86.32;100148.88;5023880;28;20028;-65
2022/09/08 05:34:46;;;;;;;15.27;12.90;;;;;;;21.00;85.93;100140.94;5027487;28;20033;-66
2022/09/08 05:37:12;;;;;;;17.58;12.38;;;;;;;21.07;85.74;100150.81;5027148;28;20048;-66
2022/09/08 05:39:38;;;;;;;17.73;12.77;;;;;;;21.07;85.51;100141.78;5026949;28;20481;-65
2022/09/08 05:42:04;;;;;;;13.80;12.40;;;;;;;21.11;85.29;100143.03;5027536;28;20033;-66
2022/09/08 05:44:30;;;;;;;19.42;12.60;;;;;;;21.15;85.13;100147.06;5026991;28;20028;-66
2022/09/08 05:46:55;;;;;;;18.38;12.20;;;;;;;21.18;85.25;100143.94;5025477;28;20317;-66
2022/09/08 05:49:21;;;;;;;17.52;12.30;;;;;;;21.23;85.48;100146.84;5025911;28;20044;-67
2022/09/08 05:51:47;;;;;;;15.60;12.27;;;;;;;21.24;85.10;100138.47;5026954;28;20497;-66
2022/09/08 05:54:13;;;;;;;16.17;12.00;;;;;;;21.25;85.14;100133.88;5009435;28;20117;-66
2022/09/08 05:56:38;;;;;;;16.02;12.38;;;;;;;21.24;85.02;100126.69;5026930;28;20432;-66
2022/09/08 05:59:04;;;;;;;22.10;12.73;;;;;;;21.35;84.64;100134.28;5009271;28;20025;-66
2022/09/08 06:01:31;;;;;;;15.48;12.10;;;;;;;21.37;84.95;100135.75;5026543;28;20021;-66
2022/09/08 06:03:59;;;;;;;14.80;11.60;;;;;;;21.41;84.62;100133.47;5020310;28;20416;-67
2022/09/08 06:06:25;;;;;;;13.82;12.25;;;;;;;21.42;84.45;100116.03;5027079;28;20033;-67
2022/09/08 06:08:54;;;;;;;15.68;12.20;;;;;;;21.52;84.56;100141.00;5026944;28;20115;-66
2022/09/08 06:11:20;;;;;;;19.13;12.30;;;;;;;21.57;84.48;100136.59;5026428;28;20359;-67
2022/09/08 06:13:45;;;;;;;17.42;11.95;;;;;;;21.62;84.08;100141.44;5026696;28;20033;-66
2022/09/08 06:16:13;;;;;;;15.65;11.73;;;;;;;21.68;84.20;100133.25;5026409;28;20028;-65
2022/09/08 06:18:44;;;;;;;12.98;11.15;;;;;;;21.69;83.84;100134.94;5026116;28;20104;-66
2022/09/08 06:21:20;;;;;;;16.05;12.73;;;;;;;21.76;83.67;100143.13;5024140;28;20044;-67
2022/09/08 06:23:51;;;;;;;18.98;10.68;;;;;;;21.80;83.46;100133.50;5008724;28;20054;-67
2022/09/08 06:26:55;;;;;;;13.02;11.63;;;;;;;21.86;83.39;100140.84;5026279;28;20051;-65
2022/09/08 06:29:42;;;;;;;13.20;11.27;;;;;;;21.96;83.60;100135.78;5019554;28;20474;-66
2022/09/08 06:32:38;;;;;;;14.63;10.65;;;;;;;22.05;83.12;100138.06;5021787;28;20496;-66
2022/09/08 06:35:21;;;;;;;11.98;10.73;;;;;;;22.23;82.33;100137.41;5022857;28;20034;-66
2022/09/08 06:37:56;;;;;;;16.75;10.73;;;;;;;22.33;82.32;100121.41;5027632;28;20492;-66
2022/09/08 06:40:34;;;;;;;15.05;10.95;;;;;;;22.61;80.77;100132.91;5007211;28;20087;-66
2022/09/08 06:43:12;;;;;;;15.35;10.65;;;;;;;22.81;79.72;100127.34;5026314;28;20029;-66
2022/09/08 06:45:44;;;;;;;15.68;10.57;;;;;;;22.91;77.84;100100.34;5025533;28;20079;-66
2022/09/08 06:48:35;;;;;;;15.27;10.02;;;;;;;23.13;77.46;100116.22;5007908;28;20461;-66
2022/09/08 06:51:13;;;;;;;12.80;10.32;;;;;;;23.26;76.76;100096.16;5006942;28;20107;-66
2022/09/08 06:53:54;;;;;;;14.68;9.73;;;;;;;23.42;76.43;100098.34;5025584;28;20076;-65
2022/09/08 06:56:29;;;;;;;11.10;9.40;;;;;;;23.62;75.83;100086.19;5008054;28;20087;-66
2022/09/08 06:59:01;;;;;;;10.95;9.60;;;;;;;23.87;74.82;100094.38;5023189;28;20033;-66
2022/09/08 07:01:39;;;;;;;12.98;9.10;;;;;;;24.16;72.85;100096.41;5023484;28;20017;-66
2022/09/08 07:04:31;;;;;;;12.60;9.55;;;;;;;24.42;71.86;100088.72;5005428;28;20120;-66
2022/09/08 07:07:20;;;;;;;11.48;9.18;;;;;;;24.77;70.03;100080.72;4987780;28;20543;-66
2022/09/08 07:09:58;;;;;;;11.05;8.82;;;;;;;25.11;68.36;100079.16;5024734;28;20021;-66
2022/09/08 07:12:42;;;;;;;13.80;9.50;;;;;;;25.42;67.25;100073.41;5024820;28;20041;-66
2022/09/08 07:15:13;;;;;;;14.68;9.60;;;;;;;25.76;63.99;100065.19;5025063;28;20063;-66
2022/09/08 07:17:51;;;;;;;11.43;9.63;;;;;;;25.96;63.49;100073.06;5025144;28;20464;-66
2022/09/08 07:20:17;;;;;;;9.93;8.10;;;;;;;26.20;62.65;100081.09;5024098;28;20472;-66
2022/09/08 07:22:58;;;;;;;8.98;8.10;;;;;;;26.46;61.36;100075.06;5025067;28;20057;-66
2022/09/08 07:25:40;;;;;;;12.70;8.73;;;;;;;26.74;60.29;100082.53;5024756;28;20493;-66
2022/09/08 07:28:33;;;;;;;11.02;8.23;;;;;;;27.08;58.89;100077.97;5025125;28;20133;-65
2022/09/08 07:31:04;;;;;;;11.68;8.35;;;;;;;27.31;58.14;100073.16;5020115;28;20037;-66
2022/09/08 07:33:36;;;;;;;11.60;8.55;;;;;;;27.54;57.26;100073.03;5018192;28;20044;-66
2022/09/08 07:36:20;;;;;;;9.32;7.78;;;;;;;27.79;56.25;100072.59;5019760;28;20425;-66
2022/09/08 07:39:02;;;;;;;12.47;8.67;;;;;;;28.07;54.83;100078.84;5019352;28;20563;-66
2022/09/08 07:41:42;;;;;;;10.73;7.60;;;;;;;28.27;54.25;100081.88;5019158;28;20108;-66
2022/09/08 07:44:14;;;;;;;10.43;7.90;;;;;;;28.41;53.70;100074.91;5021357;28;20025;-66
2022/09/08 07:46:52;;;;;;;10.77;7.60;;;;;;;28.69;53.21;100073.88;5022011;28;20048;-65
2022/09/08 07:49:41;;;;;;;10.88;7.53;;;;;;;28.86;52.34;100068.28;5020146;28;20030;-66
2022/09/08 07:52:34;;;;;;;8.90;7.90;;;;;;;29.18;51.51;100074.75;5022738;28;20088;-66
2022/09/08 07:55:23;;;;;;;9.25;7.93;;;;;;;29.44;50.82;100079.41;5005498;28;20063;-67
2022/09/08 07:58:17;;;;;;;11.85;8.15;;;;;;;29.79;49.57;100057.63;4992932;28;20045;-66
2022/09/08 08:01:01;;;;;;;10.70;8.52;;;;;;;30.29;48.34;100071.78;4993398;28;20116;-66
2022/09/08 08:03:48;;;;;;;11.68;8.02;;;;;;;30.80;46.70;100076.47;5023108;28;20477;-66
2022/09/08 08:06:34;;;;;;;11.07;7.82;;;;;;;31.36;45.21;100066.34;5024384;28;20033;-66
2022/09/08 08:09:35;;;;;;;15.20;6.82;;;;;;;32.38;43.40;100073.22;5024562;28;20037;-66
2022/09/08 08:12:26;;;;;;;11.88;7.38;;;;;;;33.55;40.64;100080.66;5027251;28;20056;-67
2022/09/08 08:15:29;;;;;;;12.18;6.70;;;;;;;34.69;38.63;100090.09;5028553;28;20032;-66
2022/09/08 08:18:00;;;;;;;7.63;5.78;;;;;;;35.46;37.09;100084.03;4970438;28;20045;-67
2022/09/08 08:20:38;;;;;;;10.77;6.35;;;;;;;36.05;35.90;100087.75;5007668;28;20066;-66
2022/09/08 08:23:28;;;;;;;8.20;5.50;;;;;;;36.63;35.05;100084.41;5028514;28;20041;-66
2022/09/08 08:26:12;;;;;;;6.65;4.95;;;;;;;37.27;33.61;100081.34;5026750;28;20056;-67
2022/09/08 08:28:42;;;;;;;9.27;5.38;;;;;;;37.77;33.22;100074.50;5028568;28;20060;-67
2022/09/08 08:31:08;;;;;;;5.50;4.50;;;;;;;38.15;32.26;100089.75;5028434;28;20512;-66
2022/09/08 08:33:39;;;;;;;6.82;4.68;;;;;;;38.45;32.18;100091.72;5027235;28;20061;-67
2022/09/08 08:36:09;;;;;;;10.00;4.80;;;;;;;38.88;31.02;100091.88;5027806;28;20034;-67
2022/09/08 08:38:41;;;;;;;9.00;4.72;;;;;;;39.25;30.86;100088.50;5028127;28;20029;-66
2022/09/08 08:42:00;;;;;;;13.97;4.87;;;;;;;39.63;29.76;100083.91;5026637;28;20110;-66
2022/09/08 08:44:58;;;;;;;5.22;4.18;;;;;;;39.88;29.49;100081.06;4965868;28;20122;-67
2022/09/08 08:47:39;;;;;;;6.30;4.05;;;;;;;39.83;28.93;100083.22;5028373;28;20044;-66
2022/09/08 08:50:17;;;;;;;5.57;4.20;;;;;;;39.87;28.87;100087.84;5010437;28;20037;-67
2022/09/08 08:53:13;;;;;;;5.78;4.00;;;;;;;39.92;28.77;100086.84;5027806;28;20053;-66
2022/09/08 08:55:49;;;;;;;7.68;4.32;;;;;;;40.24;28.65;100087.13;5027940;28;20036;-66
2022/09/08 08:58:39;;;;;;;7.70;4.30;;;;;;;40.98;27.35;100072.53;5028264;28;20037;-67
2022/09/08 09:01:15;;;;;;;8.98;4.50;;;;;;;41.36;27.12;100062.81;5024345;28;20026;-66
2022/09/08 09:03:51;;;;;;;7.10;4.40;;;;;;;41.55;26.98;100071.63;5027362;28;20029;-66
2022/09/08 09:06:42;;;;;;;8.57;4.13;;;;;;;41.75;26.65;100058.69;5027639;28;20088;-67
2022/09/08 09:09:25;;;;;;;9.70;4.50;;;;;;;42.16;25.76;100050.94;5024273;28;20574;-66
2022/09/08 09:12:10;;;;;;;7.45;4.20;;;;;;;42.47;25.59;100043.94;5027044;28;20469;-67
2022/09/08 09:14:57;;;;;;;6.35;3.88;;;;;;;42.96;24.97;100052.03;5027096;28;20026;-66
2022/09/08 09:17:51;;;;;;;10.07;4.32;;;;;;;43.04;24.77;100051.09;5027011;28;20473;-66
2022/09/08 09:20:49;;;;;;;5.10;3.70;;;;;;;43.38;24.30;100053.34;5024444;28;20037;-66
2022/09/08 09:23:27;;;;;;;7.93;3.58;;;;;;;43.43;23.95;100033.34;5008668;28;20021;-66
2022/09/08 09:25:57;;;;;;;5.80;3.58;;;;;;;43.34;24.46;100029.84;5025372;28;20611;-66
2022/09/08 09:28:38;;;;;;;4.90;3.38;;;;;;;43.22;24.24;100031.91;5025896;28;20481;-66
2022/09/08 09:31:42;;;;;;;7.97;3.75;;;;;;;42.62;25.08;100023.47;5027446;28;20579;-67
2022/09/08 09:34:29;;;;;;;5.78;3.40;;;;;;;42.11;25.35;100019.31;5022263;28;20060;-66
2022/09/08 09:37:21;;;;;;;8.02;3.05;;;;;;;41.45;25.74;100014.88;5027044;28;20068;-66
2022/09/08 09:40:06;;;;;;;7.95;3.00;;;;;;;40.58;26.90;100023.44;5024739;28;20025;-66
2022/09/08 09:42:57;;;;;;;4.60;2.80;;;;;;;39.56;28.16;100019.00;5006644;28;20034;-66
2022/09/08 09:45:51;;;;;;;9.38;2.90;;;;;;;38.77;28.94;100015.63;5021779;28;20037;-66
2022/09/08 09:48:19;;;;;;;5.50;3.03;;;;;;;38.01;30.29;100019.78;5005355;28;20042;-66
2022/09/08 09:50:51;;;;;;;4.45;2.83;;;;;;;37.54;30.68;100012.06;5026740;28;20029;-67
2022/09/08 09:53:37;;;;;;;6.32;3.25;;;;;;;37.03;31.21;100017.22;5023651;28;20072;-66
2022/09/08 09:56:24;;;;;;;5.65;3.63;;;;;;;36.50;32.42;100003.03;5021655;28;20021;-67
2022/09/08 09:59:13;;;;;;;6.50;3.00;;;;;;;36.05;32.96;99997.53;5026216;28;20056;-66
2022/09/08 10:01:57;;;;;;;5.93;3.30;;;;;;;35.66;33.62;99997.97;5008151;28;20029;-67
2022/09/08 10:04:41;;;;;;;6.13;2.85;;;;;;;35.29;33.98;99998.03;5026152;28;20037;-67
2022/09/08 10:07:31;;;;;;;4.60;2.65;;;;;;;35.09;34.28;100005.91;5026067;28;20078;-67
2022/09/08 10:10:27;;;;;;;5.80;2.53;;;;;;;34.78;34.56;99994.34;5004594;28;20025;-67
2022/09/08 10:13:11;;;;;;;4.38;2.40;;;;;;;34.63;34.15;99990.97;5006480;28;20072;-67
2022/09/08 10:15:55;;;;;;;6.30;2.20;;;;;;;34.37;35.04;99994.06;5022699;28;20029;-66
2022/09/08 10:18:20;;;;;;;;;;;;;;;34.16;35.48;99981.50;5026120;28;20025;-67
2022/09/08 10:20:51;;;;;;;5.57;2.30;;;;;;;34.17;35.35;99982.31;5025005;28;19919;-66
2022/09/08 10:23:19;;;;;;;4.13;1.92;;;;;;;34.04;35.83;99983.03;5026230;28;20667;-67
2022/09/08 10:25:51;;;;;;;4.88;2.00;;;;;;;33.92;36.28;99989.03;5021606;28;20022;-66
2022/09/08 10:28:28;;;;;;;4.13;1.98;;;;;;;33.79;36.23;99995.25;5024690;28;20033;-66
2022/09/08 10:31:29;;;;;;;4.30;2.30;;;;;;;33.69;36.00;99986.22;5025741;28;20134;-66
2022/09/08 10:34:16;;;;;;;3.65;1.83;;;;;;;33.56;36.96;99992.47;5021993;28;20067;-65
2022/09/08 10:36:45;;;;;;;3.92;1.90;;;;;;;33.45;36.85;99976.97;5005236;28;20532;-67
2022/09/08 10:39:19;;;;;;;6.93;2.55;;;;;;;33.33;36.91;99982.88;5025603;28;20113;-67
2022/09/08 10:42:06;;;;;;;3.47;2.17;;;;;;;33.22;36.91;99988.81;5025684;28;20044;-67
2022/09/08 10:44:40;;;;;;;5.10;2.33;;;;;;;33.23;37.11;99991.31;5025964;28;20055;-65
2022/09/08 10:47:43;;;;;;;5.75;2.13;;;;;;;33.14;37.55;99992.25;5026057;28;20026;-65
2022/09/08 10:50:31;;;;;;;7.35;2.25;;;;;;;33.14;36.96;99990.28;5026101;28;20869;-64
2022/09/08 10:53:33;;;;;;;3.85;2.08;;;;;;;33.01;37.41;99995.69;5018675;28;20069;-64
2022/09/08 10:56:05;;;;;;;5.43;2.15;;;;;;;32.93;37.59;99993.50;5024995;28;20048;-67
2022/09/08 10:58:58;;;;;;;4.88;2.17;;;;;;;32.89;37.56;99992.41;5024901;28;20025;-67
2022/09/08 11:01:38;;;;;;;3.80;2.50;;;;;;;32.83;37.70;99994.38;5025578;28;20033;-66
2022/09/08 11:04:41;;;;;;;5.97;2.45;;;;;;;32.75;37.70;99983.84;5026156;28;20079;-67
2022/09/08 11:07:28;;;;;;;4.53;2.05;;;;;;;32.69;38.11;99976.66;5025567;28;20413;-67
2022/09/08 11:10:16;;;;;;;7.47;2.30;;;;;;;32.69;38.10;99975.84;5025517;28;20060;-67
2022/09/08 11:12:49;;;;;;;5.47;2.70;;;;;;;32.64;38.08;99960.03;5022893;28;20078;-67
2022/09/08 11:15:47;;;;;;;3.95;2.00;;;;;;;32.56;38.49;99974.50;5024087;28;20036;-67
2022/09/08 11:18:36;;;;;;;4.10;2.25;;;;;;;32.55;37.96;99976.47;5006888;28;20037;-67
2022/09/08 11:21:18;;;;;;;3.92;2.65;;;;;;;32.53;38.25;99977.91;5025556;28;20109;-67
2022/09/08 11:24:08;;;;;;;4.60;2.03;;;;;;;32.56;38.30;99983.69;5025389;28;20481;-67
2022/09/08 11:27:02;;;;;;;5.32;2.53;;;;;;;32.47;38.61;99979.84;5024887;28;20665;-67
2022/09/08 11:29:36;;;;;;;5.03;2.73;;;;;;;32.42;38.65;99981.81;5024766;28;20056;-67
2022/09/08 11:32:32;;;;;;;4.35;1.90;;;;;;;32.41;38.14;99988.50;5024598;28;20029;-67
2022/09/08 11:35:27;;;;;;;4.72;2.20;;;;;;;32.36;37.62;99981.03;5022404;28;20029;-67
2022/09/08 11:38:21;;;;;;;5.53;2.05;;;;;;;32.31;38.40;99994.88;4982714;28;20041;-68
2022/09/08 11:40:56;;;;;;;4.85;2.75;;;;;;;32.29;39.13;99996.28;5024163;28;20037;-67
2022/09/08 11:43:44;;;;;;;4.80;2.70;;;;;;;32.22;39.11;99982.72;5024324;28;20037;-67
2022/09/08 11:46:21;;;;;;;5.15;2.63;;;;;;;32.21;39.45;99983.81;5024016;28;20104;-67
2022/09/08 11:49:28;;;;;;;4.70;2.60;;;;;;;32.22;39.56;99991.06;5024318;28;20029;-67
2022/09/08 11:52:03;;;;;;;6.65;2.35;;;;;;;32.26;39.19;99989.38;5002292;28;20073;-67
2022/09/08 11:54:37;;;;;;;6.22;2.83;;;;;;;32.23;39.73;99991.88;5021626;28;20029;-67
2022/09/08 11:57:05;;;;;;;5.05;2.58;;;;;;;32.24;39.79;99999.91;5024351;28;20038;-67
2022/09/08 11:59:49;;;;;;;5.68;2.63;;;;;;;32.21;39.42;99980.25;5024581;28;20038;-67